createdAt,value
2023-11-28T00:01:49.372Z,99988.00
2023-11-28T00:04:15.997Z,99985.34
2023-11-28T00:06:42.468Z,99995.16
2023-11-28T00:09:08.962Z,99998.78
2023-11-28T00:11:35.422Z,99993.66
2023-11-28T00:14:01.971Z,99990.81
2023-11-28T00:16:28.626Z,99999.97
2023-11-28T00:18:55.195Z,100009.78
2023-11-28T00:21:21.756Z,100016.94
2023-11-28T00:23:48.158Z,100015.09
2023-11-28T00:26:15.501Z,100020.41
2023-11-28T00:28:55.153Z,100020.56
2023-11-28T00:31:21.803Z,100034.53
2023-11-28T00:33:48.527Z,100042.19
2023-11-28T00:36:18.265Z,100035.34
2023-11-28T00:38:44.948Z,100041.34
2023-11-28T00:41:12.825Z,100052.31
2023-11-28T00:43:39.984Z,100065.94
2023-11-28T00:46:06.781Z,100060.13
2023-11-28T00:48:33.787Z,100065.94
2023-11-28T00:51:00.236Z,100077.91
2023-11-28T00:53:26.684Z,100074.75
2023-11-28T00:55:53.569Z,100080.25
2023-11-28T00:58:20.037Z,100076.91
2023-11-28T01:00:46.559Z,100087.53
2023-11-28T01:03:13.115Z,100087.41
2023-11-28T01:05:42.636Z,100100.00
2023-11-28T01:08:09.597Z,100101.03
2023-11-28T01:10:36.168Z,100107.66
2023-11-28T01:13:02.729Z,100114.44
2023-11-28T01:15:29.243Z,100116.13
2023-11-28T01:17:55.747Z,100120.94
2023-11-28T01:20:22.509Z,100122.41
2023-11-28T01:22:49.014Z,100134.38
2023-11-28T01:25:15.638Z,100124.41
2023-11-28T01:27:42.076Z,100137.53
2023-11-28T01:30:09.061Z,100139.06
2023-11-28T01:32:36.513Z,100150.31
2023-11-28T01:35:03.473Z,100150.31
2023-11-28T01:37:30.612Z,100153.66
2023-11-28T01:39:57.154Z,100172.75
2023-11-28T01:42:23.667Z,100164.63
2023-11-28T01:44:50.153Z,100174.59
2023-11-28T01:47:16.696Z,100196.53
2023-11-28T01:49:44.172Z,100192.19
2023-11-28T01:52:11.462Z,100204.47
2023-11-28T01:54:39.043Z,100212.75
2023-11-28T01:57:06.325Z,100209.94
2023-11-28T01:59:34.538Z,100222.28
2023-11-28T02:02:01.509Z,100224.06
2023-11-28T02:04:28.289Z,100231.03
2023-11-28T02:06:55.077Z,100219.06
2023-11-28T02:09:21.675Z,100234.84
2023-11-28T02:11:49.107Z,100242.66
2023-11-28T02:14:15.664Z,100245.63
2023-11-28T02:16:42.360Z,100262.00
2023-11-28T02:19:08.880Z,100258.16
2023-11-28T02:21:35.509Z,100252.06
2023-11-28T02:24:03.984Z,100271.84
2023-11-28T02:26:30.664Z,100280.03
2023-11-28T02:28:57.918Z,100275.53
2023-11-28T02:31:24.748Z,100282.28
2023-11-28T02:33:51.964Z,100285.00
2023-11-28T02:36:20.401Z,100294.09
2023-11-28T02:38:47.665Z,100289.59
2023-11-28T02:41:14.114Z,100298.72
2023-11-28T02:43:40.777Z,100292.22
2023-11-28T02:46:07.489Z,100297.38
2023-11-28T02:48:33.972Z,100308.41
2023-11-28T02:51:00.845Z,100308.06
2023-11-28T02:53:27.358Z,100317.22
2023-11-28T02:55:54.006Z,100315.53
2023-11-28T02:58:20.537Z,100310.28
2023-11-28T03:00:46.997Z,100318.56
2023-11-28T03:03:13.595Z,100319.69
2023-11-28T03:05:40.148Z,100324.88
2023-11-28T03:08:07.351Z,100327.47
2023-11-28T03:10:33.961Z,100326.47
2023-11-28T03:13:00.744Z,100332.63
2023-11-28T03:15:27.211Z,100338.47
2023-11-28T03:17:53.694Z,100341.75
2023-11-28T03:20:20.256Z,100347.72
2023-11-28T03:22:46.710Z,100350.47
2023-11-28T03:25:13.633Z,100359.59
2023-11-28T03:27:40.297Z,100369.06
2023-11-28T03:30:07.455Z,100378.53
2023-11-28T03:32:34.271Z,100364.59
2023-11-28T03:35:00.953Z,100368.16
2023-11-28T03:37:28.531Z,100379.38
2023-11-28T03:39:55.026Z,100383.78
2023-11-28T03:42:21.874Z,100375.81
2023-11-28T03:44:48.284Z,100393.03
2023-11-28T03:47:15.084Z,100383.88
2023-11-28T03:49:41.668Z,100379.41
2023-11-28T03:52:08.472Z,100379.41
2023-11-28T03:54:34.924Z,100390.38
2023-11-28T03:57:01.563Z,100404.81
2023-11-28T03:59:27.995Z,100399.50
2023-11-28T04:01:54.530Z,100392.97
2023-11-28T04:04:21.668Z,100387.81
2023-11-28T04:06:48.315Z,100390.00
2023-11-28T04:09:15.091Z,100388.88
2023-11-28T04:11:41.687Z,100390.72
2023-11-28T04:14:08.757Z,100393.56
2023-11-28T04:16:36.136Z,100397.31
2023-11-28T04:19:02.796Z,100385.56
2023-11-28T04:21:29.247Z,100391.38
2023-11-28T04:23:56.122Z,100401.16
2023-11-28T04:26:23.401Z,100402.69
2023-11-28T04:28:50.763Z,100403.16
2023-11-28T04:31:22.095Z,100400.03
2023-11-28T04:33:53.316Z,100412.03
2023-11-28T04:36:19.811Z,100417.88
2023-11-28T04:38:46.457Z,100416.72
2023-11-28T04:41:14.632Z,100410.97
2023-11-28T04:43:43.052Z,100419.59
2023-11-28T04:46:10.678Z,100436.53
2023-11-28T04:48:37.350Z,100439.19
2023-11-28T04:51:05.741Z,100429.84
2023-11-28T04:53:32.263Z,100440.19
2023-11-28T04:55:58.730Z,100452.19
2023-11-28T04:58:26.367Z,100453.06
2023-11-28T05:00:53.049Z,100455.97
2023-11-28T05:03:19.799Z,100456.56
2023-11-28T05:05:46.497Z,100451.41
2023-11-28T05:08:14.360Z,100456.88
2023-11-28T05:10:40.951Z,100463.34
2023-11-28T05:13:10.763Z,100467.50
2023-11-28T05:15:37.825Z,100468.19
2023-11-28T05:18:04.836Z,100454.22
2023-11-28T05:20:31.447Z,100469.16
2023-11-28T05:22:58.041Z,100470.53
2023-11-28T05:25:24.981Z,100466.38
2023-11-28T05:27:52.497Z,100478.22
2023-11-28T05:30:19.087Z,100469.47
2023-11-28T05:32:45.656Z,100486.88
2023-11-28T05:35:13.784Z,100483.88
2023-11-28T05:37:40.372Z,100485.50
2023-11-28T05:40:10.756Z,100480.72
2023-11-28T05:42:38.018Z,100483.59
2023-11-28T05:45:07.056Z,100489.97
2023-11-28T05:47:33.744Z,100488.50
2023-11-28T05:50:02.290Z,100492.41
2023-11-28T05:52:29.550Z,100501.75
2023-11-28T05:54:56.326Z,100507.19
2023-11-28T05:57:23.082Z,100516.00
2023-11-28T05:59:51.523Z,100518.59
2023-11-28T06:02:18.187Z,100516.72
2023-11-28T06:04:44.719Z,100517.84
2023-11-28T06:07:11.453Z,100530.91
2023-11-28T06:09:38.277Z,100537.75
2023-11-28T06:12:05.046Z,100536.75
2023-11-28T06:14:31.721Z,100545.28
2023-11-28T06:17:00.869Z,100549.75
2023-11-28T06:19:27.754Z,100553.88
2023-11-28T06:21:54.629Z,100563.97
2023-11-28T06:24:21.182Z,100559.78
2023-11-28T06:26:47.607Z,100565.25
2023-11-28T06:29:14.122Z,100574.44
2023-11-28T06:31:40.659Z,100580.03
2023-11-28T06:34:07.245Z,100590.84
2023-11-28T06:36:35.906Z,100588.19
2023-11-28T06:39:02.410Z,100592.78
2023-11-28T06:41:28.878Z,100595.03
2023-11-28T06:43:56.038Z,100594.72
2023-11-28T06:46:27.086Z,100596.81
2023-11-28T06:48:54.647Z,100604.81
2023-11-28T06:51:21.983Z,100603.00
2023-11-28T06:53:48.383Z,100601.22
2023-11-28T06:56:15.064Z,100610.25
2023-11-28T06:58:43.452Z,100610.53
2023-11-28T07:01:09.965Z,100604.53
2023-11-28T07:03:37.716Z,100604.13
2023-11-28T07:06:05.186Z,100610.94
2023-11-28T07:08:33.975Z,100612.59
2023-11-28T07:11:00.681Z,100614.41
2023-11-28T07:13:28.212Z,100626.13
2023-11-28T07:15:54.828Z,100623.78
2023-11-28T07:18:21.684Z,100629.91
2023-11-28T07:20:49.313Z,100623.47
2023-11-28T07:23:15.950Z,100616.22
2023-11-28T07:25:42.562Z,100628.06
2023-11-28T07:28:09.034Z,100626.13
2023-11-28T07:30:35.472Z,100627.69
2023-11-28T07:33:02.044Z,100623.72
2023-11-28T07:35:28.500Z,100637.41
2023-11-28T07:37:54.999Z,100633.28
2023-11-28T07:40:22.329Z,100644.75
2023-11-28T07:42:48.755Z,100644.63
2023-11-28T07:45:16.129Z,100650.00
2023-11-28T07:47:42.598Z,100659.78
2023-11-28T07:50:09.772Z,100652.06
2023-11-28T07:52:36.888Z,100659.06
2023-11-28T07:55:05.026Z,100661.03
2023-11-28T07:57:31.732Z,100660.88
2023-11-28T07:59:58.176Z,100663.38
2023-11-28T08:02:24.704Z,100671.06
2023-11-28T08:04:51.350Z,100664.25
2023-11-28T08:07:18.421Z,100674.25
2023-11-28T08:09:45.288Z,100678.47
2023-11-28T08:12:11.796Z,100679.41
2023-11-28T08:14:38.257Z,100685.00
2023-11-28T08:17:04.995Z,100685.25
2023-11-28T08:19:31.530Z,100692.31
2023-11-28T08:21:57.960Z,100683.34
2023-11-28T08:24:24.412Z,100694.38
2023-11-28T08:26:50.866Z,100693.75
2023-11-28T08:29:17.324Z,100688.97
2023-11-28T08:31:43.977Z,100684.66
2023-11-28T08:34:10.610Z,100701.81
2023-11-28T08:36:37.028Z,100701.16
2023-11-28T08:39:06.178Z,100704.78
2023-11-28T08:41:32.725Z,100709.28
2023-11-28T08:44:00.388Z,100712.47
2023-11-28T08:46:26.931Z,100717.88
2023-11-28T08:48:53.545Z,100716.59
2023-11-28T08:51:21.344Z,100717.28
2023-11-28T08:53:47.860Z,100715.91
2023-11-28T08:56:14.648Z,100714.28
2023-11-28T08:58:41.334Z,100722.34
2023-11-28T09:01:08.191Z,100712.25
2023-11-28T09:03:34.901Z,100717.09
2023-11-28T09:06:01.437Z,100721.88
2023-11-28T09:08:28.818Z,100725.09
2023-11-28T09:10:55.335Z,100729.13
2023-11-28T09:13:21.781Z,100724.19
2023-11-28T09:15:48.358Z,100731.72
2023-11-28T09:18:14.969Z,100728.22
2023-11-28T09:20:41.566Z,100723.25
2023-11-28T09:23:08.050Z,100731.97
2023-11-28T09:25:34.520Z,100740.91
2023-11-28T09:28:01.389Z,100745.06
2023-11-28T09:30:27.850Z,100747.06
2023-11-28T09:32:54.401Z,100750.97
2023-11-28T09:35:23.433Z,100759.91
2023-11-28T09:37:50.972Z,100762.16
2023-11-28T09:40:17.524Z,100770.19
2023-11-28T09:42:45.918Z,100766.25
2023-11-28T09:45:14.582Z,100765.78
2023-11-28T09:47:43.190Z,100770.47
2023-11-28T09:50:13.920Z,100769.31
2023-11-28T09:52:44.041Z,100778.03
2023-11-28T09:55:15.063Z,100767.44
2023-11-28T09:57:45.964Z,100775.44
2023-11-28T10:00:18.453Z,100771.31
2023-11-28T10:02:45.511Z,100776.97
2023-11-28T10:05:13.270Z,100776.28
2023-11-28T10:07:43.594Z,100777.44
2023-11-28T10:10:10.359Z,100765.72
2023-11-28T10:12:39.732Z,100764.59
2023-11-28T10:15:08.129Z,100771.09
2023-11-28T10:17:37.194Z,100772.16
2023-11-28T10:20:10.791Z,100771.31
2023-11-28T10:22:40.641Z,100772.63
2023-11-28T10:25:08.803Z,100779.09
2023-11-28T10:27:42.471Z,100791.25
2023-11-28T10:30:22.845Z,100788.03
2023-11-28T10:32:52.248Z,100788.50
2023-11-28T10:35:18.944Z,100781.59
2023-11-28T10:37:46.145Z,100788.59
2023-11-28T10:40:18.276Z,100785.63
2023-11-28T10:42:45.369Z,100773.97
2023-11-28T10:45:14.157Z,100778.00
2023-11-28T10:47:43.448Z,100779.81
2023-11-28T10:50:15.020Z,100787.69
2023-11-28T10:52:46.053Z,100787.22
2023-11-28T10:55:19.308Z,100780.56
2023-11-28T10:58:02.109Z,100780.78
2023-11-28T11:00:29.899Z,100784.44
2023-11-28T11:02:57.440Z,100777.31
2023-11-28T11:05:25.131Z,100777.72
2023-11-28T11:07:53.001Z,100783.41
2023-11-28T11:10:19.490Z,100783.94
2023-11-28T11:12:50.541Z,100789.09
2023-11-28T11:15:27.703Z,100782.28
2023-11-28T11:18:14.454Z,100779.94
2023-11-28T11:20:44.798Z,100783.09
2023-11-28T11:23:15.760Z,100781.69
2023-11-28T11:25:44.645Z,100780.41
2023-11-28T11:28:11.319Z,100787.75
2023-11-28T11:30:38.908Z,100781.03
2023-11-28T11:33:09.045Z,100774.56
2023-11-28T11:36:08.632Z,100784.06
2023-11-28T11:38:36.845Z,100777.22
2023-11-28T11:41:05.764Z,100773.59
2023-11-28T11:43:37.500Z,100775.03
2023-11-28T11:46:12.935Z,100776.41
2023-11-28T11:48:41.153Z,100766.53
2023-11-28T11:51:08.481Z,100766.84
2023-11-28T11:53:39.662Z,100762.34
2023-11-28T11:56:07.168Z,100771.16
2023-11-28T11:58:33.800Z,100771.69
2023-11-28T12:01:02.544Z,100769.38
2023-11-28T12:03:30.136Z,100769.06
2023-11-28T12:06:01.627Z,100761.38
2023-11-28T12:08:28.712Z,100760.91
2023-11-28T12:11:12.447Z,100761.44
2023-11-28T12:13:41.011Z,100763.44
2023-11-28T12:16:08.198Z,100770.78
2023-11-28T12:18:36.047Z,100764.81
2023-11-28T12:21:02.781Z,100763.03
2023-11-28T12:23:29.247Z,100775.53
2023-11-28T12:25:58.723Z,100768.06
2023-11-28T12:28:27.626Z,100770.59
2023-11-28T12:30:54.299Z,100771.44
2023-11-28T12:33:20.854Z,100767.63
2023-11-28T12:35:50.422Z,100770.63
2023-11-28T12:38:18.765Z,100780.47
2023-11-28T12:40:46.984Z,100775.09
2023-11-28T12:43:22.477Z,100772.22
2023-11-28T12:45:52.899Z,100774.38
2023-11-28T12:48:20.094Z,100771.38
2023-11-28T12:50:46.844Z,100771.25
2023-11-28T12:53:18.784Z,100767.72
2023-11-28T12:55:48.733Z,100768.22
2023-11-28T12:58:15.220Z,100765.09
2023-11-28T13:00:41.796Z,100773.97
2023-11-28T13:03:08.766Z,100771.50
2023-11-28T13:05:35.378Z,100774.19
2023-11-28T13:08:01.944Z,100781.22
2023-11-28T13:10:28.774Z,100769.03
2023-11-28T13:13:03.809Z,100771.38
2023-11-28T13:15:38.484Z,100762.84
2023-11-28T13:18:05.103Z,100761.34
2023-11-28T13:20:31.904Z,100757.47
2023-11-28T13:22:58.436Z,100764.50
2023-11-28T13:25:24.956Z,100767.47
2023-11-28T13:27:51.426Z,100767.13
2023-11-28T13:30:18.386Z,100758.25
2023-11-28T13:32:45.047Z,100751.09
2023-11-28T13:35:12.948Z,100753.91
2023-11-28T13:37:39.550Z,100751.25
2023-11-28T13:40:09.950Z,100749.41
2023-11-28T13:42:36.426Z,100751.22
2023-11-28T13:45:03.081Z,100749.38
2023-11-28T13:47:29.963Z,100740.88
2023-11-28T13:49:57.253Z,100741.38
2023-11-28T13:52:23.781Z,100747.25
2023-11-28T13:54:50.275Z,100747.25
2023-11-28T13:57:16.721Z,100758.22
2023-11-28T13:59:43.376Z,100761.88
2023-11-28T14:02:10.043Z,100761.38
2023-11-28T14:04:36.676Z,100758.00
2023-11-28T14:07:03.092Z,100759.84
2023-11-28T14:09:29.823Z,100760.53
2023-11-28T14:11:56.331Z,100752.69
2023-11-28T14:14:22.943Z,100746.69
2023-11-28T14:16:50.356Z,100751.84
2023-11-28T14:19:16.839Z,100748.34
2023-11-28T14:21:43.444Z,100749.34
2023-11-28T14:24:09.953Z,100748.50
2023-11-28T14:26:36.437Z,100742.50
2023-11-28T14:29:03.046Z,100741.66
2023-11-28T14:31:29.537Z,100749.50
2023-11-28T14:33:56.457Z,100754.81
2023-11-28T14:36:22.997Z,100750.66
2023-11-28T14:38:51.122Z,100759.63
2023-11-28T14:41:17.682Z,100752.13
2023-11-28T14:43:44.522Z,100750.28
2023-11-28T14:46:11.015Z,100753.81
2023-11-28T14:48:37.581Z,100751.75
2023-11-28T14:51:04.965Z,100745.44
2023-11-28T14:53:32.837Z,100744.47
2023-11-28T14:55:59.354Z,100739.25
2023-11-28T14:58:25.837Z,100734.41
2023-11-28T15:00:52.622Z,100733.41
2023-11-28T15:03:19.341Z,100728.25
2023-11-28T15:05:45.901Z,100730.38
2023-11-28T15:08:12.540Z,100724.06
2023-11-28T15:10:39.120Z,100721.03
2023-11-28T15:13:07.871Z,100708.53
2023-11-28T15:15:34.302Z,100717.22
2023-11-28T15:18:00.739Z,100708.41
2023-11-28T15:20:27.383Z,100715.69
2023-11-28T15:22:54.028Z,100720.38
2023-11-28T15:25:20.588Z,100724.00
2023-11-28T15:27:47.092Z,100723.47
2023-11-28T15:30:13.963Z,100718.00
2023-11-28T15:32:40.635Z,100717.00
2023-11-28T15:35:11.716Z,100709.31
2023-11-28T15:37:39.654Z,100705.66
2023-11-28T15:40:10.578Z,100704.00
2023-11-28T15:42:37.627Z,100704.78
2023-11-28T15:45:04.901Z,100701.47
2023-11-28T15:47:31.562Z,100704.44
2023-11-28T15:49:59.218Z,100704.59
2023-11-28T15:52:25.729Z,100705.44
2023-11-28T15:54:54.560Z,100699.94
2023-11-28T15:57:21.148Z,100708.22
2023-11-28T15:59:48.768Z,100709.94
2023-11-28T16:02:15.442Z,100702.59
2023-11-28T16:04:42.198Z,100704.25
2023-11-28T16:07:09.500Z,100703.59
2023-11-28T16:09:36.084Z,100696.44
2023-11-28T16:12:02.625Z,100696.44
2023-11-28T16:14:29.148Z,100698.03
2023-11-28T16:16:55.906Z,100700.56
2023-11-28T16:19:22.448Z,100697.75
2023-11-28T16:21:49.251Z,100687.88
2023-11-28T16:24:16.255Z,100684.66
2023-11-28T16:26:42.947Z,100682.00
2023-11-28T16:29:09.578Z,100675.81
2023-11-28T16:31:36.895Z,100662.06
2023-11-28T16:34:03.371Z,100660.88
2023-11-28T16:36:30.123Z,100657.28
2023-11-28T16:38:56.845Z,100650.47
2023-11-28T16:41:23.694Z,100661.13
2023-11-28T16:43:50.799Z,100648.97
2023-11-28T16:46:17.326Z,100654.28
2023-11-28T16:48:43.823Z,100649.59
2023-11-28T16:51:15.083Z,100646.75
2023-11-28T16:53:41.861Z,100647.44
2023-11-28T16:56:09.136Z,100657.28
2023-11-28T16:58:35.866Z,100655.06
2023-11-28T17:01:03.620Z,100649.22
2023-11-28T17:03:30.395Z,100658.22
2023-11-28T17:05:57.006Z,100655.69
2023-11-28T17:08:23.616Z,100652.50
2023-11-28T17:10:50.925Z,100642.00
2023-11-28T17:13:17.496Z,100638.50
2023-11-28T17:15:43.989Z,100640.66
2023-11-28T17:18:10.792Z,100627.47
2023-11-28T17:20:37.481Z,100633.66
2023-11-28T17:23:04.049Z,100628.16
2023-11-28T17:25:30.663Z,100630.25
2023-11-28T17:27:57.162Z,100631.84
2023-11-28T17:30:23.605Z,100623.56
2023-11-28T17:32:50.109Z,100618.94
2023-11-28T17:35:18.585Z,100616.34
2023-11-28T17:37:45.216Z,100613.22
2023-11-28T17:40:12.857Z,100612.09
2023-11-28T17:42:39.328Z,100605.56
2023-11-28T17:45:06.301Z,100604.56
2023-11-28T17:47:35.219Z,100604.94
2023-11-28T17:50:01.817Z,100602.44
2023-11-28T17:52:28.911Z,100585.81
2023-11-28T17:54:56.443Z,100578.13
2023-11-28T17:57:22.909Z,100566.53
2023-11-28T17:59:49.306Z,100558.84
2023-11-28T18:02:16.547Z,100569.22
2023-11-28T18:04:43.908Z,100555.06
2023-11-28T18:07:11.414Z,100547.78
2023-11-28T18:09:38.090Z,100547.63
2023-11-28T18:12:05.029Z,100567.59
2023-11-28T18:14:35.912Z,100578.25
2023-11-28T18:17:03.769Z,100578.09
2023-11-28T18:19:30.790Z,100568.44
2023-11-28T18:21:57.500Z,100553.28
2023-11-28T18:24:24.005Z,100562.28
2023-11-28T18:26:50.417Z,100555.81
2023-11-28T18:29:17.012Z,100554.53
2023-11-28T18:31:46.415Z,100547.06
2023-11-28T18:34:13.004Z,100534.88
2023-11-28T18:36:40.367Z,100527.41
2023-11-28T18:39:09.782Z,100520.09
2023-11-28T18:41:41.186Z,100498.97
2023-11-28T18:44:12.233Z,100497.84
2023-11-28T18:46:41.121Z,100500.00
2023-11-28T18:49:07.578Z,100487.78
2023-11-28T18:51:34.002Z,100485.91
2023-11-28T18:54:00.512Z,100495.72
2023-11-28T18:56:31.098Z,100495.16
2023-11-28T18:58:57.902Z,100487.81
2023-11-28T19:01:27.596Z,100490.22
2023-11-28T19:03:55.082Z,100500.13
2023-11-28T19:06:26.760Z,100501.94
2023-11-28T19:08:54.267Z,100498.94
2023-11-28T19:11:24.674Z,100498.06
2023-11-28T19:13:52.662Z,100504.69
2023-11-28T19:16:25.729Z,100515.09
2023-11-28T19:18:55.110Z,100513.59
2023-11-28T19:21:22.372Z,100507.91
2023-11-28T19:23:48.819Z,100517.03
2023-11-28T19:26:16.466Z,100515.88
2023-11-28T19:28:44.870Z,100512.59
2023-11-28T19:31:12.180Z,100515.94
2023-11-28T19:33:38.831Z,100503.28
2023-11-28T19:36:06.197Z,100498.94
2023-11-28T19:38:33.848Z,100498.91
2023-11-28T19:41:00.367Z,100490.44
2023-11-28T19:43:27.454Z,100485.94
2023-11-28T19:45:54.037Z,100495.44
2023-11-28T19:48:23.379Z,100475.31
2023-11-28T19:50:50.611Z,100468.47
2023-11-28T19:53:18.336Z,100474.63
2023-11-28T19:55:45.680Z,100472.78
2023-11-28T19:58:12.574Z,100475.13
2023-11-28T20:00:39.416Z,100475.00
2023-11-28T20:03:07.523Z,100464.19
2023-11-28T20:05:35.254Z,100467.16
2023-11-28T20:08:03.101Z,100458.03
2023-11-28T20:10:30.176Z,100458.41
2023-11-28T20:12:59.629Z,100459.56
2023-11-28T20:15:28.356Z,100436.63
2023-11-28T20:17:55.398Z,100433.13
2023-11-28T20:20:22.591Z,100431.31
2023-11-28T20:22:51.837Z,100434.19
2023-11-28T20:25:19.523Z,100438.50
2023-11-28T20:27:46.274Z,100430.00
2023-11-28T20:30:13.820Z,100428.50
2023-11-28T20:32:40.830Z,100437.09
2023-11-28T20:35:08.264Z,100439.56
2023-11-28T20:37:35.905Z,100446.19
2023-11-28T20:40:02.754Z,100445.34
2023-11-28T20:42:29.218Z,100443.38
2023-11-28T20:44:56.146Z,100437.75
2023-11-28T20:47:23.148Z,100437.41
2023-11-28T20:49:49.626Z,100423.97
2023-11-28T20:52:16.087Z,100425.13
2023-11-28T20:54:42.539Z,100420.47
2023-11-28T20:57:08.972Z,100422.50
2023-11-28T20:59:37.105Z,100411.19
2023-11-28T21:02:06.132Z,100409.19
2023-11-28T21:04:33.667Z,100410.22
2023-11-28T21:07:00.265Z,100412.41
2023-11-28T21:09:26.772Z,100417.06
2023-11-28T21:11:53.515Z,100404.47
2023-11-28T21:14:21.196Z,100412.22
2023-11-28T21:16:48.332Z,100412.06
2023-11-28T21:19:14.812Z,100401.38
2023-11-28T21:21:41.210Z,100404.56
2023-11-28T21:24:07.907Z,100405.03
2023-11-28T21:26:34.419Z,100395.41
2023-11-28T21:29:00.908Z,100397.53
2023-11-28T21:31:28.044Z,100392.22
2023-11-28T21:33:54.555Z,100392.34
2023-11-28T21:36:22.244Z,100371.19
2023-11-28T21:38:51.254Z,100345.22
2023-11-28T21:41:20.120Z,100340.91
2023-11-28T21:43:46.782Z,100337.94
2023-11-28T21:46:13.600Z,100334.78
2023-11-28T21:48:46.387Z,100340.78
2023-11-28T21:51:13.081Z,100338.94
2023-11-28T21:53:39.752Z,100353.75
2023-11-28T21:56:06.599Z,100344.91
2023-11-28T21:58:33.619Z,100346.41
2023-11-28T22:01:00.067Z,100351.91
2023-11-28T22:03:26.640Z,100347.25
2023-11-28T22:05:53.287Z,100347.63
2023-11-28T22:08:19.850Z,100338.78
2023-11-28T22:10:46.320Z,100334.63
2023-11-28T22:13:12.823Z,100329.47
2023-11-28T22:15:39.288Z,100321.00
2023-11-28T22:18:06.109Z,100329.47
2023-11-28T22:20:33.516Z,100321.38
2023-11-28T22:23:00.088Z,100325.91
2023-11-28T22:25:26.632Z,100323.03
2023-11-28T22:27:53.275Z,100312.06
2023-11-28T22:30:19.852Z,100303.22
2023-11-28T22:32:46.391Z,100301.34
2023-11-28T22:35:12.923Z,100291.53
2023-11-28T22:37:40.734Z,100291.50
2023-11-28T22:40:09.289Z,100280.69
2023-11-28T22:42:35.710Z,100269.44
2023-11-28T22:45:02.301Z,100286.09
2023-11-28T22:47:28.891Z,100283.41
2023-11-28T22:49:55.374Z,100280.41
2023-11-28T22:52:21.947Z,100294.41
2023-11-28T22:54:48.413Z,100296.06
2023-11-28T22:57:15.067Z,100296.38
2023-11-28T22:59:42.775Z,100291.53
2023-11-28T23:02:11.774Z,100294.34
2023-11-28T23:04:39.031Z,100297.47
2023-11-28T23:07:05.647Z,100287.00
2023-11-28T23:09:32.503Z,100279.66
2023-11-28T23:12:01.619Z,100272.34
2023-11-28T23:14:29.683Z,100240.63
2023-11-28T23:16:56.278Z,100240.50
2023-11-28T23:19:22.721Z,100220.22
2023-11-28T23:21:49.149Z,100228.22
2023-11-28T23:24:15.711Z,100222.75
2023-11-28T23:26:45.460Z,100220.97
2023-11-28T23:29:12.101Z,100211.78
2023-11-28T23:31:38.592Z,100216.13
2023-11-28T23:34:06.045Z,100219.47
2023-11-28T23:36:33.048Z,100227.94
2023-11-28T23:38:59.739Z,100214.13
2023-11-28T23:41:26.424Z,100220.09
2023-11-28T23:43:56.342Z,100223.59
2023-11-28T23:46:22.834Z,100220.75
2023-11-28T23:48:53.415Z,100214.09
2023-11-28T23:51:20.426Z,100184.66
2023-11-28T23:53:47.684Z,100179.00
2023-11-28T23:56:14.443Z,100169.06
2023-11-28T23:58:41.062Z,100161.91
